createdAt,value
2023-01-13T00:01:10.665Z,1.27
2023-01-13T00:03:38.021Z,1.65
2023-01-13T00:06:06.122Z,1.42
2023-01-13T00:08:33.698Z,0.77
2023-01-13T00:11:00.752Z,2.42
2023-01-13T00:13:27.787Z,1.38
2023-01-13T00:15:59.072Z,1.50
2023-01-13T00:18:26.621Z,1.70
2023-01-13T00:21:05.263Z,1.20
2023-01-13T00:23:33.834Z,0.40
2023-01-13T00:26:03.367Z,1.25
2023-01-13T00:28:30.315Z,1.98
2023-01-13T00:31:04.184Z,0.80
2023-01-13T00:33:31.146Z,1.75
2023-01-13T00:35:59.146Z,5.18
2023-01-13T00:38:26.104Z,0.93
2023-01-13T00:41:00.724Z,1.58
2023-01-13T00:43:29.660Z,1.15
2023-01-13T00:45:56.639Z,0.35
2023-01-13T00:48:25.377Z,0.93
2023-01-13T00:51:01.070Z,1.92
2023-01-13T00:53:28.909Z,1.17
2023-01-13T00:56:16.606Z,1.02
2023-01-13T00:58:44.620Z,0.80
2023-01-13T01:01:16.236Z,1.40
2023-01-13T01:03:43.451Z,0.98
2023-01-13T01:06:19.865Z,0.70
2023-01-13T01:08:46.923Z,1.50
2023-01-13T01:11:20.674Z,1.45
2023-01-13T01:13:48.480Z,1.00
2023-01-13T01:16:18.309Z,1.85
2023-01-13T01:18:47.213Z,0.82
2023-01-13T01:21:14.893Z,3.00
2023-01-13T01:23:42.346Z,3.15
2023-01-13T01:26:13.843Z,0.85
2023-01-13T01:28:41.409Z,0.40
2023-01-13T01:31:11.217Z,0.90
2023-01-13T01:33:38.199Z,0.95
2023-01-13T01:36:05.401Z,1.00
2023-01-13T01:38:32.388Z,0.95
2023-01-13T01:40:59.820Z,1.30
2023-01-13T01:44:00.066Z,1.75
2023-01-13T01:46:42.064Z,0.45
2023-01-13T01:49:19.999Z,0.77
2023-01-13T01:52:16.430Z,0.73
2023-01-13T01:55:12.771Z,2.60
2023-01-13T01:57:45.403Z,1.08
2023-01-13T02:00:13.314Z,1.58
2023-01-13T02:02:46.391Z,0.75
2023-01-13T02:05:13.471Z,0.80
2023-01-13T02:07:42.965Z,1.45
2023-01-13T02:10:12.914Z,0.60
2023-01-13T02:12:41.298Z,1.83
2023-01-13T02:15:14.831Z,0.88
2023-01-13T02:18:05.407Z,0.63
2023-01-13T02:20:53.842Z,1.80
2023-01-13T02:24:18.391Z,2.33
2023-01-13T02:27:09.983Z,1.20
2023-01-13T02:30:11.085Z,0.75
2023-01-13T02:32:58.281Z,1.27
2023-01-13T02:35:34.258Z,0.98
2023-01-13T02:38:02.935Z,0.95
2023-01-13T02:40:40.357Z,1.98
2023-01-13T02:43:35.973Z,1.98
2023-01-13T02:46:15.516Z,1.17
2023-01-13T02:48:45.794Z,0.50
2023-01-13T02:51:17.952Z,0.95
2023-01-13T02:53:52.331Z,0.68
2023-01-13T02:58:48.877Z,0.60
2023-01-13T03:01:15.988Z,1.48
2023-01-13T03:03:43.959Z,1.27
2023-01-13T03:10:55.495Z,0.50
2023-01-13T03:13:41.650Z,0.40
2023-01-13T03:16:33.454Z,1.92
2023-01-13T03:19:29.133Z,1.35
2023-01-13T03:22:13.096Z,1.25
2023-01-13T03:25:04.057Z,0.40
2023-01-13T03:27:30.787Z,2.03
2023-01-13T03:30:07.176Z,0.40
2023-01-13T03:32:41.466Z,3.05
2023-01-13T03:35:36.282Z,0.30
2023-01-13T03:38:28.909Z,0.47
2023-01-13T03:40:59.189Z,1.27
2023-01-13T03:44:01.663Z,1.38
2023-01-13T03:46:44.967Z,1.10
2023-01-13T03:49:16.578Z,2.15
2023-01-13T03:51:48.506Z,2.03
2023-01-13T03:54:17.536Z,0.50
2023-01-13T03:57:15.507Z,0.65
2023-01-13T03:59:48.548Z,1.60
2023-01-13T04:02:36.560Z,1.98
2023-01-13T04:05:09.288Z,0.73
2023-01-13T04:07:49.612Z,0.75
2023-01-13T04:10:32.917Z,0.32
2023-01-13T04:13:05.225Z,0.95
2023-01-13T04:15:37.486Z,0.73
2023-01-13T04:18:23.913Z,1.65
2023-01-13T04:20:53.476Z,1.45
2023-01-13T04:23:21.702Z,1.95
2023-01-13T04:25:49.536Z,1.42
2023-01-13T04:28:17.687Z,1.95
2023-01-13T04:30:45.542Z,0.45
2023-01-13T04:33:13.818Z,0.95
2023-01-13T04:35:40.884Z,0.52
2023-01-13T04:38:13.274Z,1.42
2023-01-13T04:40:41.297Z,0.82
2023-01-13T04:43:08.138Z,0.30
2023-01-13T04:45:35.157Z,0.98
2023-01-13T04:48:02.234Z,0.80
2023-01-13T04:50:29.092Z,0.28
2023-01-13T04:52:56.483Z,0.95
2023-01-13T04:55:24.581Z,0.60
2023-01-13T04:57:51.810Z,1.27
2023-01-13T05:00:21.366Z,0.98
2023-01-13T05:02:51.621Z,0.70
2023-01-13T05:05:18.994Z,0.35
2023-01-13T05:07:46.087Z,1.08
2023-01-13T05:10:13.202Z,0.30
2023-01-13T05:12:58.458Z,0.98
2023-01-13T05:15:43.905Z,0.38
2023-01-13T05:18:11.313Z,0.20
2023-01-13T05:20:38.292Z,0.82
2023-01-13T05:23:23.696Z,1.17
2023-01-13T05:25:50.645Z,0.35
2023-01-13T05:28:17.554Z,1.27
2023-01-13T05:30:47.102Z,1.30
2023-01-13T05:33:16.873Z,0.75
2023-01-13T05:35:46.714Z,1.63
2023-01-13T05:38:14.142Z,0.30
2023-01-13T05:41:00.243Z,0.45
2023-01-13T05:43:28.090Z,0.60
2023-01-13T05:46:02.378Z,0.90
2023-01-13T05:51:02.251Z,3.65
2023-01-13T05:53:29.920Z,1.00
2023-01-13T05:55:56.857Z,1.27
2023-01-13T05:58:26.486Z,0.47
2023-01-13T06:00:58.897Z,0.68
2023-01-13T06:03:25.701Z,0.65
2023-01-13T06:05:58.499Z,0.50
2023-01-13T06:08:26.087Z,1.17
2023-01-13T06:10:53.435Z,0.80
2023-01-13T06:13:20.537Z,0.50
2023-01-13T06:15:47.570Z,0.57
2023-01-13T06:18:14.536Z,0.43
2023-01-13T06:20:41.635Z,0.98
2023-01-13T06:23:11.033Z,1.15
2023-01-13T06:25:58.407Z,0.20
2023-01-13T06:28:25.393Z,1.45
2023-01-13T06:30:57.804Z,1.58
2023-01-13T06:33:33.768Z,0.50
2023-01-13T06:36:04.993Z,0.10
2023-01-13T06:38:37.433Z,3.35
2023-01-13T06:41:07.032Z,0.55
2023-01-13T06:43:34.034Z,0.13
2023-01-13T06:46:01.919Z,1.45
2023-01-13T06:48:34.984Z,0.10
2023-01-13T06:51:02.953Z,1.25
2023-01-13T06:53:29.752Z,0.45
2023-01-13T06:55:56.586Z,0.20
2023-01-13T06:58:23.400Z,0.43
2023-01-13T07:00:51.441Z,0.88
2023-01-13T07:03:19.247Z,0.73
2023-01-13T07:05:52.756Z,2.50
2023-01-13T07:08:19.905Z,0.20
2023-01-13T07:10:46.677Z,0.10
2023-01-13T07:13:32.129Z,0.20
2023-01-13T07:16:02.019Z,0.68
2023-01-13T07:18:31.800Z,1.30
2023-01-13T07:21:01.483Z,1.70
2023-01-13T07:23:30.122Z,0.30
2023-01-13T07:25:58.204Z,0.22
2023-01-13T07:28:25.765Z,2.22
2023-01-13T07:30:52.907Z,0.77
2023-01-13T07:33:20.181Z,3.42
2023-01-13T07:35:48.067Z,0.52
2023-01-13T07:38:15.269Z,0.52
2023-01-13T07:40:42.038Z,0.75
2023-01-13T07:43:30.720Z,2.58
2023-01-13T07:46:04.542Z,0.68
2023-01-13T07:48:33.230Z,3.10
2023-01-13T07:51:08.804Z,1.58
2023-01-13T07:53:36.308Z,0.93
2023-01-13T07:56:05.377Z,0.80
2023-01-13T07:58:34.266Z,2.08
2023-01-13T08:01:06.855Z,2.50
2023-01-13T08:03:33.755Z,2.67
2023-01-13T08:06:04.823Z,0.40
2023-01-13T08:08:31.663Z,1.42
2023-01-13T08:11:04.200Z,1.20
2023-01-13T08:13:31.233Z,1.80
2023-01-13T08:16:05.741Z,0.57
2023-01-13T08:21:06.372Z,0.17
2023-01-13T08:23:33.327Z,0.55
2023-01-13T08:26:06.023Z,0.47
2023-01-13T08:28:33.487Z,0.63
2023-01-13T08:31:05.538Z,0.85
2023-01-13T08:33:33.007Z,0.38
2023-01-13T08:36:03.432Z,1.25
2023-01-13T08:38:30.270Z,1.67
2023-01-13T08:40:57.414Z,1.58
2023-01-13T08:43:24.189Z,0.50
2023-01-13T08:46:01.429Z,1.08
2023-01-13T08:48:31.294Z,2.15
2023-01-13T08:51:07.524Z,0.88
2023-01-13T08:53:34.570Z,0.95
2023-01-13T08:56:01.696Z,0.80
2023-01-13T08:58:28.609Z,0.40
2023-01-13T09:00:55.513Z,1.83
2023-01-13T09:03:22.440Z,1.95
2023-01-13T09:05:49.229Z,1.80
2023-01-13T09:08:16.353Z,1.10
2023-01-13T09:10:43.221Z,2.83
2023-01-13T09:13:13.862Z,0.98
2023-01-13T09:15:45.647Z,1.48
2023-01-13T09:18:13.731Z,2.83
2023-01-13T09:20:41.481Z,1.13
2023-01-13T09:23:10.912Z,1.70
2023-01-13T09:25:38.969Z,0.90
2023-01-13T09:28:06.151Z,2.00
2023-01-13T09:30:33.056Z,1.42
2023-01-13T09:33:18.715Z,1.02
2023-01-13T09:35:45.583Z,0.73
2023-01-13T09:38:12.527Z,1.25
2023-01-13T09:40:41.588Z,1.42
2023-01-13T09:43:52.723Z,1.17
2023-01-13T09:46:48.803Z,2.60
2023-01-13T09:49:20.921Z,1.80
2023-01-13T09:52:15.040Z,2.55
2023-01-13T09:54:57.838Z,0.95
2023-01-13T09:57:27.329Z,1.75
2023-01-13T09:59:54.465Z,1.45
2023-01-13T10:02:39.661Z,0.55
2023-01-13T10:05:32.281Z,3.70
2023-01-13T10:08:05.470Z,1.65
2023-01-13T10:10:48.412Z,1.30
2023-01-13T10:13:28.146Z,4.25
2023-01-13T10:16:19.100Z,1.38
2023-01-13T10:19:11.837Z,1.50
2023-01-13T10:21:41.453Z,0.98
2023-01-13T10:24:26.747Z,1.67
2023-01-13T10:26:53.584Z,3.70
2023-01-13T10:29:27.303Z,2.38
2023-01-13T10:31:55.675Z,2.17
2023-01-13T10:34:23.849Z,3.00
2023-01-13T10:37:09.769Z,2.42
2023-01-13T10:39:47.877Z,2.63
2023-01-13T10:42:21.716Z,2.53
2023-01-13T10:44:59.509Z,1.95
2023-01-13T10:47:34.872Z,1.83
2023-01-13T10:50:13.019Z,2.50
2023-01-13T10:52:54.901Z,2.28
2023-01-13T10:55:33.186Z,1.70
2023-01-13T10:58:13.994Z,2.10
2023-01-13T11:00:40.908Z,2.97
2023-01-13T11:03:23.567Z,3.38
2023-01-13T11:05:58.900Z,1.63
2023-01-13T11:08:31.531Z,2.28
2023-01-13T11:10:59.818Z,5.10
2023-01-13T11:13:57.612Z,1.92
2023-01-13T11:16:26.801Z,3.97
2023-01-13T11:19:13.084Z,1.85
2023-01-13T11:22:00.187Z,4.28
2023-01-13T11:24:40.053Z,3.05
2023-01-13T11:27:25.630Z,5.57
2023-01-13T11:30:24.802Z,2.22
2023-01-13T11:33:02.478Z,3.47
2023-01-13T11:35:31.383Z,2.75
2023-01-13T11:38:09.753Z,5.07
2023-01-13T11:40:45.015Z,3.83
2023-01-13T11:43:26.358Z,3.50
2023-01-13T11:45:57.523Z,4.00
2023-01-13T11:48:31.559Z,3.63
2023-01-13T11:51:32.035Z,3.17
2023-01-13T11:54:38.115Z,4.82
2023-01-13T11:57:37.393Z,2.58
2023-01-13T12:00:28.328Z,5.78
2023-01-13T12:03:22.213Z,3.67
2023-01-13T12:05:59.834Z,4.07
2023-01-13T12:08:47.070Z,4.65
2023-01-13T12:11:29.454Z,4.15
2023-01-13T12:14:34.667Z,4.00
2023-01-13T12:17:06.996Z,6.88
2023-01-13T12:19:33.804Z,4.32
2023-01-13T12:22:11.737Z,8.20
2023-01-13T12:25:05.710Z,2.83
2023-01-13T12:27:40.810Z,4.07
2023-01-13T12:30:31.788Z,5.18
2023-01-13T12:33:12.877Z,4.80
2023-01-13T12:35:48.859Z,3.30
2023-01-13T12:38:36.918Z,3.28
2023-01-13T12:41:21.278Z,3.47
2023-01-13T12:44:07.908Z,2.85
2023-01-13T12:46:43.736Z,2.72
2023-01-13T12:49:24.948Z,4.68
2023-01-13T12:51:54.870Z,3.05
2023-01-13T12:54:31.156Z,4.22
2023-01-13T12:56:59.047Z,2.60
2023-01-13T12:59:25.812Z,5.05
2023-01-13T13:02:13.011Z,2.97
2023-01-13T13:04:49.787Z,1.85
2023-01-13T13:07:57.824Z,1.38
2023-01-13T13:10:36.557Z,5.18
2023-01-13T13:13:19.455Z,3.47
2023-01-13T13:15:49.129Z,3.08
2023-01-13T13:18:21.823Z,3.67
2023-01-13T13:21:04.220Z,6.82
2023-01-13T13:23:54.010Z,5.15
2023-01-13T13:26:32.870Z,3.22
2023-01-13T13:29:02.660Z,3.17
2023-01-13T13:31:44.425Z,5.00
2023-01-13T13:34:14.243Z,5.88
2023-01-13T13:36:47.254Z,4.55
2023-01-13T13:39:45.633Z,3.05
2023-01-13T13:42:30.998Z,5.13
2023-01-13T13:45:18.421Z,3.63
2023-01-13T13:47:45.542Z,3.22
2023-01-13T13:50:20.584Z,4.35
2023-01-13T13:53:05.402Z,3.15
2023-01-13T13:55:32.850Z,3.72
2023-01-13T13:58:01.664Z,2.65
2023-01-13T14:00:32.033Z,3.72
2023-01-13T14:03:29.304Z,4.95
2023-01-13T14:05:59.734Z,2.60
2023-01-13T14:08:29.570Z,3.00
2023-01-13T14:10:57.170Z,2.65
2023-01-13T14:13:27.481Z,4.20
2023-01-13T14:16:07.467Z,6.95
2023-01-13T14:18:44.358Z,4.57
2023-01-13T14:21:24.792Z,3.22
2023-01-13T14:23:54.520Z,2.20
2023-01-13T14:26:28.806Z,3.78
2023-01-13T14:28:57.379Z,3.20
2023-01-13T14:31:24.770Z,2.85
2023-01-13T14:33:57.958Z,4.72
2023-01-13T14:36:33.502Z,3.90
2023-01-13T14:39:03.427Z,1.40
2023-01-13T14:41:43.959Z,2.95
2023-01-13T14:44:16.590Z,3.80
2023-01-13T14:46:45.233Z,2.05
2023-01-13T14:49:44.357Z,3.40
2023-01-13T14:52:16.364Z,3.45
2023-01-13T14:55:10.384Z,3.33
2023-01-13T14:57:39.620Z,3.67
2023-01-13T15:00:21.694Z,4.20
2023-01-13T15:02:57.752Z,4.70
2023-01-13T15:05:33.841Z,2.97
2023-01-13T15:08:11.090Z,3.08
2023-01-13T15:10:46.856Z,4.03
2023-01-13T15:13:25.053Z,3.20
2023-01-13T15:16:01.982Z,5.13
2023-01-13T15:18:28.842Z,3.72
2023-01-13T15:20:55.708Z,4.45
2023-01-13T15:23:22.757Z,3.42
2023-01-13T15:25:49.817Z,4.93
2023-01-13T15:28:22.124Z,5.45
2023-01-13T15:30:50.253Z,2.03
2023-01-13T15:33:17.866Z,3.53
2023-01-13T15:35:50.205Z,4.88
2023-01-13T15:38:20.206Z,3.25
2023-01-13T15:40:48.356Z,3.33
2023-01-13T15:43:35.973Z,2.40
2023-01-13T15:46:24.567Z,2.92
2023-01-13T15:48:54.665Z,2.80
2023-01-13T15:51:21.835Z,3.15
2023-01-13T15:53:48.645Z,3.08
2023-01-13T15:56:24.451Z,3.10
2023-01-13T15:58:51.332Z,2.60
2023-01-13T16:01:18.442Z,1.67
2023-01-13T16:03:45.550Z,4.68
2023-01-13T16:06:27.829Z,3.10
2023-01-13T16:08:54.644Z,4.00
2023-01-13T16:11:21.422Z,2.55
2023-01-13T16:13:48.250Z,4.35
2023-01-13T16:16:20.418Z,4.03
2023-01-13T16:18:48.062Z,2.78
2023-01-13T16:21:15.873Z,7.18
2023-01-13T16:23:42.781Z,4.50
2023-01-13T16:26:25.435Z,5.00
2023-01-13T16:28:54.336Z,5.63
2023-01-13T16:31:32.992Z,5.13
2023-01-13T16:34:01.552Z,6.80
2023-01-13T16:36:30.747Z,6.22
2023-01-13T16:38:57.876Z,5.88
2023-01-13T16:41:25.329Z,4.10
2023-01-13T16:43:52.906Z,4.85
2023-01-13T16:46:25.487Z,3.50
2023-01-13T16:48:55.975Z,4.82
2023-01-13T16:51:24.447Z,6.97
2023-01-13T16:53:51.850Z,6.55
2023-01-13T16:56:31.751Z,2.63
2023-01-13T16:59:06.086Z,5.80
2023-01-13T17:04:01.643Z,4.40
2023-01-13T17:06:42.604Z,3.72
2023-01-13T17:09:17.050Z,4.55
2023-01-13T17:14:18.504Z,3.42
2023-01-13T17:16:46.942Z,3.10
2023-01-13T17:19:14.337Z,6.18
2023-01-13T17:21:41.468Z,7.00
2023-01-13T17:24:10.675Z,4.35
2023-01-13T17:26:42.095Z,4.68
2023-01-13T17:29:13.793Z,4.35
2023-01-13T17:31:40.675Z,4.85
2023-01-13T17:34:07.996Z,5.00
2023-01-13T17:36:34.774Z,4.07
2023-01-13T17:39:01.655Z,4.72
2023-01-13T17:41:28.530Z,3.95
2023-01-13T17:43:55.371Z,3.53
2023-01-13T17:46:23.070Z,5.65
2023-01-13T17:48:53.969Z,5.50
2023-01-13T17:51:22.834Z,4.68
2023-01-13T17:53:49.680Z,6.55
2023-01-13T17:56:17.267Z,4.65
2023-01-13T17:58:46.969Z,5.63
2023-01-13T18:01:17.169Z,4.05
2023-01-13T18:03:44.622Z,3.45
2023-01-13T18:06:20.197Z,4.13
2023-01-13T18:08:47.411Z,4.43
2023-01-13T18:11:18.721Z,5.20
2023-01-13T18:13:49.623Z,3.38
2023-01-13T18:16:18.664Z,4.45
2023-01-13T18:18:47.161Z,5.13
2023-01-13T18:21:44.213Z,4.57
2023-01-13T18:24:35.091Z,3.47
2023-01-13T18:27:21.596Z,3.72
2023-01-13T18:29:57.693Z,4.10
2023-01-13T18:32:29.536Z,5.25
2023-01-13T18:35:06.124Z,8.13
2023-01-13T18:37:36.077Z,5.40
2023-01-13T18:40:04.082Z,5.35
2023-01-13T18:42:49.521Z,2.95
2023-01-13T18:45:16.390Z,4.70
2023-01-13T18:47:43.164Z,4.38
2023-01-13T18:50:12.513Z,5.30
2023-01-13T18:52:40.276Z,3.40
2023-01-13T18:55:07.642Z,5.53
2023-01-13T18:57:38.607Z,4.32
2023-01-13T19:00:06.583Z,6.43
2023-01-13T19:02:33.505Z,7.88
2023-01-13T19:05:00.277Z,5.30
2023-01-13T19:07:29.169Z,7.47
2023-01-13T19:09:56.143Z,3.90
2023-01-13T19:12:30.965Z,6.80
2023-01-13T19:14:58.785Z,5.03
2023-01-13T19:17:27.649Z,3.55
2023-01-13T19:19:57.266Z,4.00
2023-01-13T19:22:29.591Z,4.22
2023-01-13T19:24:57.518Z,7.00
2023-01-13T19:27:25.351Z,6.78
2023-01-13T19:29:53.755Z,5.25
2023-01-13T19:32:21.911Z,7.47
2023-01-13T19:34:51.019Z,4.25
2023-01-13T19:37:19.404Z,8.40
2023-01-13T19:39:46.930Z,4.80
2023-01-13T19:42:32.877Z,6.45
2023-01-13T19:45:18.428Z,4.07
2023-01-13T19:47:45.984Z,3.33
2023-01-13T19:50:13.862Z,3.75
2023-01-13T19:52:42.278Z,6.93
2023-01-13T19:55:11.792Z,4.40
2023-01-13T19:57:41.926Z,4.10
2023-01-13T20:00:10.376Z,2.05
2023-01-13T20:02:44.939Z,4.25
2023-01-13T20:05:15.182Z,6.35
2023-01-13T20:07:42.006Z,4.53
2023-01-13T20:10:09.551Z,2.70
2023-01-13T20:12:36.653Z,6.07
2023-01-13T20:15:03.843Z,3.92
2023-01-13T20:17:30.832Z,5.13
2023-01-13T20:19:58.999Z,5.40
2023-01-13T20:22:25.879Z,2.95
2023-01-13T20:24:55.268Z,4.55
2023-01-13T20:27:23.765Z,3.63
2023-01-13T20:29:51.211Z,6.20
2023-01-13T20:32:18.102Z,5.97
2023-01-13T20:34:45.006Z,4.22
2023-01-13T20:37:11.969Z,3.08
2023-01-13T20:39:41.056Z,4.30
2023-01-13T20:42:27.954Z,5.13
2023-01-13T20:44:55.201Z,5.15
2023-01-13T20:47:22.478Z,5.40
2023-01-13T20:49:49.312Z,7.63
2023-01-13T20:52:16.113Z,5.75
2023-01-13T20:54:42.888Z,6.65
2023-01-13T20:57:10.838Z,4.53
2023-01-13T20:59:38.862Z,5.47
2023-01-13T21:02:08.005Z,2.92
2023-01-13T21:04:34.864Z,6.38
2023-01-13T21:07:01.637Z,7.63
2023-01-13T21:09:29.301Z,7.68
2023-01-13T21:12:14.806Z,6.70
2023-01-13T21:15:00.188Z,6.03
2023-01-13T21:17:45.705Z,3.33
2023-01-13T21:20:14.095Z,5.40
2023-01-13T21:22:45.976Z,5.35
2023-01-13T21:25:13.923Z,4.82
2023-01-13T21:27:41.756Z,8.27
2023-01-13T21:30:09.165Z,7.50
2023-01-13T21:32:35.933Z,6.68
2023-01-13T21:35:02.794Z,12.18
2023-01-13T21:37:29.550Z,7.90
2023-01-13T21:39:56.439Z,8.65
2023-01-13T21:42:41.784Z,6.80
2023-01-13T21:45:29.183Z,5.85
2023-01-13T21:47:56.139Z,5.63
2023-01-13T21:50:27.001Z,4.65
2023-01-13T21:52:54.193Z,9.73
2023-01-13T21:55:32.813Z,3.78
2023-01-13T21:58:07.067Z,3.75
2023-01-13T22:00:34.156Z,4.25
2023-01-13T22:03:04.227Z,5.57
2023-01-13T22:05:31.472Z,4.57
2023-01-13T22:07:58.597Z,5.82
2023-01-13T22:10:28.184Z,5.63
2023-01-13T22:12:57.551Z,8.90
2023-01-13T22:15:27.030Z,4.10
2023-01-13T22:17:55.505Z,6.65
2023-01-13T22:20:22.869Z,6.53
2023-01-13T22:22:49.941Z,7.65
2023-01-13T22:25:20.014Z,6.50
2023-01-13T22:27:48.415Z,6.57
2023-01-13T22:30:18.285Z,6.10
2023-01-13T22:32:46.406Z,5.88
2023-01-13T22:35:15.318Z,7.30
2023-01-13T22:37:42.917Z,8.25
2023-01-13T22:40:11.575Z,6.72
2023-01-13T22:42:42.527Z,4.85
2023-01-13T22:45:13.326Z,5.63
2023-01-13T22:47:40.177Z,4.97
2023-01-13T22:50:07.980Z,8.63
2023-01-13T22:52:35.516Z,5.15
2023-01-13T22:55:02.723Z,8.80
2023-01-13T22:57:47.213Z,8.40
2023-01-13T23:00:18.660Z,9.93
2023-01-13T23:02:45.460Z,7.03
2023-01-13T23:05:13.764Z,6.65
2023-01-13T23:07:40.650Z,3.65
2023-01-13T23:10:09.144Z,7.18
2023-01-13T23:12:35.899Z,5.68
2023-01-13T23:15:03.513Z,4.20
2023-01-13T23:17:30.264Z,6.35
2023-01-13T23:19:57.029Z,4.95
2023-01-13T23:22:23.917Z,7.28
2023-01-13T23:24:50.860Z,5.10
2023-01-13T23:27:17.649Z,6.88
2023-01-13T23:29:44.441Z,6.75
2023-01-13T23:32:11.291Z,6.63
2023-01-13T23:34:38.192Z,5.95
2023-01-13T23:37:04.957Z,4.80
2023-01-13T23:39:31.768Z,6.45
2023-01-13T23:41:59.515Z,5.78
2023-01-13T23:44:26.303Z,6.25
2023-01-13T23:46:53.317Z,6.13
2023-01-13T23:49:20.542Z,5.55
2023-01-13T23:51:50.762Z,7.05
2023-01-13T23:54:18.393Z,9.02
2023-01-13T23:56:45.330Z,4.10
2023-01-13T23:59:12.175Z,6.25
